Time;durP1;ratioP1;P1;durP2;ratioP2;P2;SDS_P1;SDS_P2;PMS_P1;PMS_P2;Temp;Humidity;BMP_temperature;BMP_pressure;BME280_temperature;BME280_humidity;BME280_pressure;Samples;Min_cycle;Max_cycle;Signal;HPM_P1;HPM_P2
2022/01/17 00:00:16;;;;;;;10.63;2.30;;;8.20;76.20;;;;;;6095617;23;92862;-71
2022/01/17 00:02:47;;;;;;;8.30;1.75;;;8.10;77.00;;;;;;6069123;23;93973;-71
2022/01/17 00:05:15;;;;;;;10.48;2.03;;;8.10;76.80;;;;;;6094314;23;94816;-70
2022/01/17 00:07:42;;;;;;;11.05;2.03;;;8.10;76.50;;;;;;6094876;23;92739;-70
2022/01/17 00:10:10;;;;;;;12.23;1.98;;;8.10;76.60;;;;;;6068981;23;94153;-70
2022/01/17 00:12:43;;;;;;;8.00;1.90;;;8.10;76.80;;;;;;6094548;23;102312;-70
2022/01/17 00:35:10;;;;;;;9.30;1.70;;;7.60;78.80;;;;;;6067118;23;92944;-70
2022/01/17 00:37:38;;;;;;;8.02;2.17;;;7.50;79.10;;;;;;6095438;23;92370;-70
2022/01/17 00:40:06;;;;;;;12.50;1.88;;;7.50;79.10;;;;;;6091658;23;96499;-70
2022/01/17 00:42:33;;;;;;;10.88;2.25;;;7.50;78.60;;;;;;6095200;23;95158;-70
2022/01/17 00:45:06;;;;;;;17.00;2.28;;;7.40;78.80;;;;;;6095266;23;92340;-70
2022/01/17 00:47:33;;;;;;;14.60;3.00;;;7.40;78.90;;;;;;6069206;23;92463;-71
2022/01/17 00:50:00;;;;;;;14.07;1.85;;;7.40;79.00;;;;;;6068645;23;96441;-70
2022/01/17 00:52:27;;;;;;;15.07;2.78;;;7.30;78.60;;;;;;6095577;23;92797;-70
2022/01/17 00:54:54;;;;;;;16.38;2.75;;;7.30;78.30;;;;;;6069067;23;92445;-70
2022/01/17 00:57:21;;;;;;;11.25;2.10;;;7.40;78.60;;;;;;6095727;23;92064;-70
2022/01/17 00:59:48;;;;;;;13.88;2.28;;;7.30;78.50;;;;;;6095252;23;93712;-70
2022/01/17 01:02:15;;;;;;;12.38;2.10;;;7.40;78.40;;;;;;6068221;23;103552;-70
2022/01/17 01:04:42;;;;;;;15.40;1.92;;;7.40;78.20;;;;;;6067716;23;94924;-70
2022/01/17 01:07:09;;;;;;;13.43;2.05;;;7.50;78.30;;;;;;6094967;23;92470;-70
2022/01/17 01:09:45;;;;;;;13.25;1.88;;;7.50;77.80;;;;;;6068829;23;94424;-70
2022/01/17 01:12:12;;;;;;;15.02;2.47;;;7.50;78.10;;;;;;6094964;23;92798;-70
2022/01/17 01:14:41;;;;;;;15.10;2.38;;;7.50;78.40;;;;;;6095342;23;92358;-70
2022/01/17 01:17:19;;;;;;;10.93;2.72;;;7.60;78.00;;;;;;6095039;23;92906;-70
2022/01/17 01:19:56;;;;;;;10.82;2.10;;;7.60;77.90;;;;;;6094346;23;93371;-70
2022/01/17 01:27:56;;;;;;;13.52;2.17;;;7.60;77.90;;;;;;6095249;23;92299;-70
2022/01/17 01:30:25;;;;;;;9.98;1.90;;;7.60;78.10;;;;;;6093150;23;96184;-70
2022/01/17 01:32:56;;;;;;;9.07;1.80;;;7.60;77.80;;;;;;6094723;23;95012;-70
2022/01/17 01:35:27;;;;;;;8.13;2.20;;;7.60;77.70;;;;;;6094651;23;92433;-70
2022/01/17 01:37:54;;;;;;;14.77;2.15;;;7.60;78.40;;;;;;6095109;23;92556;-70
2022/01/17 01:40:22;;;;;;;14.82;2.20;;;7.60;77.60;;;;;;6094791;23;93082;-71
2022/01/17 01:42:52;;;;;;;9.20;1.80;;;7.60;77.40;;;;;;6094954;23;92756;-71
2022/01/17 01:45:22;;;;;;;12.23;2.00;;;7.60;77.30;;;;;;6092887;23;92370;-71
2022/01/17 01:47:49;;;;;;;10.45;2.10;;;7.60;77.10;;;;;;6095484;23;91746;-70
2022/01/17 01:50:18;;;;;;;12.63;2.60;;;7.60;76.80;;;;;;6094637;23;93031;-70
2022/01/17 01:52:46;;;;;;;9.45;2.33;;;7.60;76.80;;;;;;6094541;23;93842;-71
2022/01/17 01:55:15;;;;;;;17.25;2.35;;;7.60;77.00;;;;;;6066703;23;99714;-70
2022/01/17 01:57:44;;;;;;;17.33;2.33;;;7.60;77.20;;;;;;6095101;23;92276;-70
2022/01/17 02:00:13;;;;;;;10.20;1.92;;;7.60;76.80;;;;;;6094589;23;92900;-70
2022/01/17 02:02:40;;;;;;;17.02;2.60;;;7.60;76.50;;;;;;6095087;23;92740;-70
2022/01/17 02:05:08;;;;;;;12.43;2.25;;;7.60;77.40;;;;;;6095189;23;92289;-70
2022/01/17 02:07:35;;;;;;;7.82;1.92;;;7.50;76.80;;;;;;6094976;23;92427;-70
2022/01/17 02:10:04;;;;;;;14.68;2.67;;;7.50;76.70;;;;;;6068503;23;95699;-70
2022/01/17 02:12:32;;;;;;;10.27;1.90;;;7.50;76.70;;;;;;6095056;23;92728;-70
2022/01/17 02:14:58;;;;;;;10.48;1.95;;;7.40;77.00;;;;;;6094870;23;92288;-67
2022/01/17 02:17:26;;;;;;;16.08;1.95;;;7.40;77.50;;;;;;6094812;23;92415;-66
2022/01/17 02:20:05;;;;;;;14.35;2.20;;;7.40;77.70;;;;;;6093404;23;94899;-66
2022/01/17 02:22:32;;;;;;;11.07;1.80;;;7.30;77.90;;;;;;6094441;23;95058;-66
2022/01/17 02:25:00;;;;;;;12.95;2.13;;;7.30;78.80;;;;;;6068592;23;104101;-66
2022/01/17 02:27:27;;;;;;;10.35;1.90;;;7.30;78.80;;;;;;6094623;23;92429;-66
2022/01/17 02:29:54;;;;;;;13.20;2.03;;;7.30;78.50;;;;;;6094314;23;92982;-66
2022/01/17 02:32:21;;;;;;;19.38;2.83;;;7.20;78.30;;;;;;6094164;23;94354;-66
2022/01/17 02:34:49;;;;;;;12.38;2.15;;;7.20;79.00;;;;;;6095015;23;92307;-66
2022/01/17 02:37:18;;;;;;;11.65;1.48;;;7.20;79.10;;;;;;6094747;23;91588;-70
2022/01/17 02:39:45;;;;;;;9.75;1.92;;;7.10;78.90;;;;;;6068180;23;94099;-70
2022/01/17 02:42:16;;;;;;;14.20;2.05;;;7.10;79.90;;;;;;6092935;23;93829;-71
2022/01/17 02:44:45;;;;;;;18.63;2.78;;;7.10;79.40;;;;;;6093513;23;94828;-70
2022/01/17 02:47:15;;;;;;;16.00;2.47;;;7.10;79.20;;;;;;6068357;23;92424;-67
2022/01/17 02:49:42;;;;;;;14.95;2.10;;;7.10;79.80;;;;;;6094738;23;93096;-66
2022/01/17 02:52:09;;;;;;;17.52;1.92;;;7.10;79.60;;;;;;6092718;23;102793;-66
2022/01/17 02:54:36;;;;;;;15.00;2.22;;;7.10;79.30;;;;;;6094583;23;92455;-66
2022/01/17 02:57:04;;;;;;;12.18;2.30;;;7.00;80.20;;;;;;6094811;23;92271;-66
2022/01/17 02:59:31;;;;;;;15.05;2.95;;;7.00;79.80;;;;;;6094135;23;94048;-66
2022/01/17 03:01:59;;;;;;;15.05;2.70;;;7.00;80.80;;;;;;6094983;23;93249;-66
2022/01/17 03:04:28;;;;;;;15.95;3.15;;;6.90;79.90;;;;;;6094923;23;92423;-66
2022/01/17 03:06:55;;;;;;;10.57;2.53;;;6.90;80.00;;;;;;6094930;23;92375;-66
2022/01/17 03:09:24;;;;;;;9.32;2.67;;;6.90;80.30;;;;;;6092564;23;95553;-66
2022/01/17 03:11:51;;;;;;;12.00;2.60;;;6.90;80.70;;;;;;6094275;23;95207;-66
2022/01/17 03:14:18;;;;;;;20.27;2.60;;;6.90;80.50;;;;;;6068109;23;92422;-66
2022/01/17 03:16:47;;;;;;;14.00;2.30;;;6.90;80.50;;;;;;6094571;23;92384;-66
2022/01/17 03:19:15;;;;;;;12.77;1.80;;;6.90;80.60;;;;;;6094224;23;92982;-66
2022/01/17 03:21:42;;;;;;;10.30;2.08;;;6.90;80.40;;;;;;6094007;23;92779;-66
2022/01/17 03:24:09;;;;;;;14.60;2.28;;;6.90;80.70;;;;;;6094611;23;92371;-66
2022/01/17 03:26:36;;;;;;;12.13;2.08;;;6.90;80.70;;;;;;6068720;23;91645;-66
2022/01/17 03:29:04;;;;;;;16.00;2.42;;;6.90;80.60;;;;;;6094169;23;92953;-66
2022/01/17 03:31:31;;;;;;;19.27;2.30;;;6.90;81.20;;;;;;6093568;23;93809;-66
2022/01/17 03:33:58;;;;;;;11.32;2.03;;;7.00;80.90;;;;;;6092844;23;94799;-66
2022/01/17 03:36:26;;;;;;;11.07;2.22;;;7.00;80.90;;;;;;6092090;23;92407;-66
2022/01/17 03:38:54;;;;;;;14.63;2.60;;;7.10;80.50;;;;;;6094140;23;92938;-66
2022/01/17 03:41:21;;;;;;;11.75;2.05;;;7.10;80.10;;;;;;6094203;23;92800;-66
2022/01/17 03:43:48;;;;;;;13.20;2.25;;;7.20;80.00;;;;;;6095827;23;92361;-66
2022/01/17 03:46:15;;;;;;;19.65;2.72;;;7.20;79.80;;;;;;6095689;23;92399;-66
2022/01/17 03:48:42;;;;;;;18.65;3.20;;;7.20;79.80;;;;;;6068853;23;94044;-66
2022/01/17 03:51:09;;;;;;;13.35;2.60;;;7.20;80.10;;;;;;6095996;23;92814;-66
2022/01/17 03:53:36;;;;;;;21.55;2.35;;;7.30;79.90;;;;;;6095254;23;96747;-66
2022/01/17 03:56:03;;;;;;;10.43;2.20;;;7.30;79.30;;;;;;6095774;23;92398;-66
2022/01/17 03:58:30;;;;;;;14.07;2.70;;;7.30;79.70;;;;;;6067380;23;96812;-66
2022/01/17 04:00:59;;;;;;;13.25;1.95;;;7.30;79.30;;;;;;6095367;23;94979;-66
2022/01/17 04:03:26;;;;;;;12.13;2.40;;;7.40;79.60;;;;;;6095185;23;92376;-70
2022/01/17 04:05:54;;;;;;;13.55;2.38;;;7.40;79.60;;;;;;6095271;23;92524;-71
2022/01/17 04:08:21;;;;;;;11.65;2.05;;;7.40;79.70;;;;;;6095446;23;94351;-72
2022/01/17 04:10:48;;;;;;;10.77;2.17;;;7.40;80.10;;;;;;6095165;23;93465;-71
2022/01/17 04:13:15;;;;;;;17.92;2.80;;;7.40;79.80;;;;;;6094073;23;92435;-70
2022/01/17 04:15:42;;;;;;;14.88;2.55;;;7.40;79.10;;;;;;6095662;23;91826;-70
2022/01/17 04:18:10;;;;;;;13.07;2.42;;;7.40;79.10;;;;;;6095591;23;93048;-66
2022/01/17 04:20:39;;;;;;;8.80;2.13;;;7.40;79.70;;;;;;6094817;23;96035;-66
2022/01/17 04:23:09;;;;;;;13.23;2.20;;;7.40;79.40;;;;;;6094369;23;95457;-66
2022/01/17 04:25:37;;;;;;;9.55;1.88;;;7.40;79.30;;;;;;6068988;23;92505;-66
2022/01/17 04:28:07;;;;;;;11.75;2.53;;;7.30;79.70;;;;;;6095514;23;92934;-70
2022/01/17 04:30:35;;;;;;;10.85;2.25;;;7.30;79.50;;;;;;6094849;23;92934;-70
2022/01/17 04:33:02;;;;;;;12.65;2.13;;;7.20;80.70;;;;;;6044506;23;98720;-70
2022/01/17 04:35:30;;;;;;;10.95;2.63;;;7.20;80.00;;;;;;6095281;23;92432;-70
2022/01/17 04:38:04;;;;;;;11.48;2.10;;;7.20;80.10;;;;;;6095590;23;92919;-70
2022/01/17 04:40:36;;;;;;;11.43;2.65;;;7.20;79.80;;;;;;6095659;23;92614;-70
2022/01/17 04:43:13;;;;;;;9.88;2.38;;;7.20;80.40;;;;;;6069455;23;92455;-70
2022/01/17 04:45:40;;;;;;;9.85;1.83;;;7.20;79.80;;;;;;6095172;23;92414;-70
2022/01/17 04:48:07;;;;;;;11.07;1.92;;;7.20;80.30;;;;;;6093605;23;96479;-71
2022/01/17 04:50:34;;;;;;;13.15;2.30;;;7.20;80.10;;;;;;6068533;23;96515;-70
2022/01/17 04:53:02;;;;;;;12.15;2.13;;;7.30;80.20;;;;;;6095271;23;92383;-70
2022/01/17 04:55:29;;;;;;;17.55;2.22;;;7.30;80.20;;;;;;6095434;23;92449;-70
2022/01/17 04:57:57;;;;;;;11.13;1.65;;;7.40;79.90;;;;;;6095095;23;93105;-70
2022/01/17 05:00:26;;;;;;;11.48;1.58;;;7.40;80.70;;;;;;6095358;23;94889;-70
2022/01/17 05:02:53;;;;;;;11.90;1.83;;;7.40;80.90;;;;;;6095354;23;92711;-70
2022/01/17 05:05:21;;;;;;;11.63;2.17;;;7.50;80.30;;;;;;6095788;23;91697;-70
2022/01/17 05:07:48;;;;;;;11.70;1.60;;;7.50;80.20;;;;;;6094938;23;93136;-70
2022/01/17 05:10:17;;;;;;;10.13;2.30;;;7.50;80.20;;;;;;6094337;23;113619;-70
2022/01/17 05:12:45;;;;;;;15.13;1.90;;;7.60;80.30;;;;;;6067079;23;94872;-70
2022/01/17 05:18:11;;;;;;;7.22;1.77;;;7.60;81.10;;;;;;6094817;23;93985;-70
2022/01/17 05:20:39;;;;;;;10.33;2.50;;;7.60;80.10;;;;;;6068603;23;92970;-71
2022/01/17 05:23:07;;;;;;;7.07;1.55;;;7.70;80.50;;;;;;6095294;23;92421;-71
2022/01/17 05:25:35;;;;;;;9.48;1.90;;;7.70;80.70;;;;;;6095268;23;92347;-70
2022/01/17 05:28:02;;;;;;;10.77;2.28;;;7.70;80.90;;;;;;6094788;23;93129;-72
2022/01/17 05:30:29;;;;;;;11.57;1.95;;;7.70;81.50;;;;;;6095450;23;92793;-70
2022/01/17 05:32:58;;;;;;;12.43;2.30;;;7.70;81.10;;;;;;6068209;23;104911;-70
2022/01/17 05:35:25;;;;;;;10.90;2.30;;;7.80;81.40;;;;;;6094631;23;92502;-70
2022/01/17 05:37:52;;;;;;;12.65;2.63;;;7.80;81.40;;;;;;6093496;23;95305;-70
2022/01/17 05:40:20;;;;;;;15.05;2.25;;;7.90;81.90;;;;;;6095016;23;95236;-66
2022/01/17 05:42:47;;;;;;;10.35;2.47;;;7.90;81.40;;;;;;6095035;23;92379;-66
2022/01/17 05:45:16;;;;;;;10.77;2.20;;;7.90;81.50;;;;;;6095119;23;92452;-66
2022/01/17 05:47:44;;;;;;;11.45;1.92;;;7.90;81.70;;;;;;6094678;23;92963;-66
2022/01/17 05:50:12;;;;;;;9.07;2.88;;;8.00;81.00;;;;;;6069074;23;92823;-66
2022/01/17 05:52:39;;;;;;;14.70;2.70;;;7.90;80.60;;;;;;6095867;23;92746;-66
2022/01/17 05:55:09;;;;;;;17.83;3.03;;;7.90;81.10;;;;;;6095466;23;91669;-66
2022/01/17 05:57:36;;;;;;;13.68;2.33;;;8.00;81.40;;;;;;6069106;23;93006;-66
2022/01/17 06:00:07;;;;;;;9.48;2.17;;;8.00;81.30;;;;;;6094653;23;92804;-66
2022/01/17 06:02:34;;;;;;;11.20;2.60;;;8.00;81.20;;;;;;6094060;23;94696;-66
2022/01/17 06:05:01;;;;;;;11.63;2.55;;;8.00;81.40;;;;;;6094110;23;92434;-66
2022/01/17 06:07:27;;;;;;;14.55;3.30;;;8.00;81.80;;;;;;6094795;23;93027;-66
2022/01/17 06:09:54;;;;;;;14.18;3.17;;;8.00;81.50;;;;;;6094715;23;92789;-66
2022/01/17 06:12:21;;;;;;;17.02;2.90;;;8.10;81.60;;;;;;6068840;23;92348;-66
2022/01/17 06:14:49;;;;;;;17.80;2.97;;;8.10;82.60;;;;;;6095047;23;94162;-66
2022/01/17 06:17:16;;;;;;;11.43;2.85;;;8.10;81.60;;;;;;6068745;23;94109;-66
2022/01/17 06:19:43;;;;;;;12.13;3.92;;;8.10;81.30;;;;;;6095209;23;92831;-66
2022/01/17 06:22:10;;;;;;;14.57;2.70;;;8.20;81.60;;;;;;6094999;23;92626;-66
2022/01/17 06:24:38;;;;;;;10.70;2.42;;;8.20;81.00;;;;;;6094794;23;92406;-66
2022/01/17 06:27:05;;;;;;;12.75;3.70;;;8.20;81.40;;;;;;6066088;23;111247;-66
2022/01/17 06:29:32;;;;;;;21.65;3.83;;;8.20;82.10;;;;;;6068225;23;98987;-66
2022/01/17 06:31:59;;;;;;;11.32;2.92;;;8.20;81.80;;;;;;6094899;23;92422;-66
2022/01/17 06:34:46;;;;;;;13.65;2.72;;;8.20;81.80;;;;;;6068744;23;92430;-66
2022/01/17 06:37:14;;;;;;;15.43;3.33;;;8.20;81.90;;;;;;6094154;23;93063;-66
2022/01/17 06:39:41;;;;;;;18.27;3.40;;;8.20;82.40;;;;;;6094724;23;92834;-66
2022/01/17 06:42:08;;;;;;;16.95;3.33;;;8.20;82.20;;;;;;6068406;23;92463;-66
2022/01/17 06:44:35;;;;;;;17.08;3.20;;;8.20;82.50;;;;;;6068967;23;91747;-66
2022/01/17 06:47:02;;;;;;;13.30;2.85;;;8.20;82.30;;;;;;6094020;23;93032;-66
2022/01/17 06:49:29;;;;;;;16.23;3.10;;;8.30;82.40;;;;;;6094617;23;92755;-66
2022/01/17 06:51:56;;;;;;;16.10;3.55;;;8.30;82.60;;;;;;6093290;23;94801;-66
2022/01/17 06:54:23;;;;;;;16.25;3.25;;;8.30;82.40;;;;;;6068330;23;92453;-66
2022/01/17 06:56:50;;;;;;;16.85;3.72;;;8.30;82.90;;;;;;6094339;23;93014;-66
2022/01/17 06:59:17;;;;;;;21.95;3.83;;;8.30;83.10;;;;;;6094519;23;92749;-66
2022/01/17 07:01:44;;;;;;;18.38;3.67;;;8.40;83.40;;;;;;6094697;23;92316;-66
2022/01/17 07:04:11;;;;;;;16.15;3.60;;;8.30;83.60;;;;;;6092826;23;93446;-66
2022/01/17 07:06:39;;;;;;;13.98;3.33;;;8.30;84.10;;;;;;6094322;23;94952;-66
2022/01/17 07:09:09;;;;;;;14.23;3.15;;;8.40;84.50;;;;;;6067744;23;94085;-66
2022/01/17 07:11:38;;;;;;;14.20;3.30;;;8.30;83.60;;;;;;6094172;23;92475;-66
2022/01/17 07:14:08;;;;;;;18.83;3.22;;;8.30;83.90;;;;;;6092677;23;92501;-66
2022/01/17 07:16:37;;;;;;;15.52;3.47;;;8.30;83.80;;;;;;6092994;23;95382;-66
2022/01/17 07:19:05;;;;;;;19.20;3.70;;;8.30;84.40;;;;;;6095015;23;95005;-67
2022/01/17 07:21:32;;;;;;;15.35;4.13;;;8.20;84.50;;;;;;6069338;23;92397;-66
2022/01/17 07:24:01;;;;;;;15.43;3.67;;;8.20;84.70;;;;;;6095027;23;95610;-66
2022/01/17 07:26:28;;;;;;;19.08;3.45;;;8.30;84.20;;;;;;6095493;23;92921;-66
2022/01/17 07:28:55;;;;;;;18.58;4.18;;;8.30;83.90;;;;;;6095500;23;92825;-70
2022/01/17 07:31:22;;;;;;;18.17;3.50;;;8.30;84.00;;;;;;6095821;23;92334;-70
2022/01/17 07:33:49;;;;;;;19.08;4.15;;;8.40;84.10;;;;;;6096221;23;91597;-70
2022/01/17 07:36:27;;;;;;;18.55;4.43;;;8.30;83.50;;;;;;6094510;23;93157;-70
2022/01/17 07:38:54;;;;;;;20.88;4.30;;;8.40;83.90;;;;;;6069148;23;94121;-66
2022/01/17 07:41:21;;;;;;;21.92;4.18;;;8.40;84.00;;;;;;6067694;23;94773;-66
2022/01/17 07:43:56;;;;;;;17.30;4.50;;;8.40;83.90;;;;;;6069532;23;92442;-67
2022/01/17 07:46:47;;;;;;;21.08;3.72;;;8.50;83.70;;;;;;6095246;23;96859;-66
2022/01/17 07:49:19;;;;;;;17.50;3.70;;;8.50;83.90;;;;;;6095317;23;93103;-66
2022/01/17 07:51:56;;;;;;;18.95;4.07;;;8.50;83.60;;;;;;6096007;23;92506;-66
2022/01/17 07:54:24;;;;;;;23.17;4.47;;;8.60;83.90;;;;;;6095430;23;92421;-66
2022/01/17 07:56:51;;;;;;;14.23;3.63;;;8.60;84.20;;;;;;6095477;23;92915;-66
2022/01/17 07:59:19;;;;;;;16.00;4.10;;;8.60;83.90;;;;;;6095604;23;92783;-67
2022/01/17 08:01:46;;;;;;;15.85;3.72;;;8.60;84.20;;;;;;6094412;23;92686;-66
2022/01/17 08:04:13;;;;;;;18.63;3.88;;;8.60;83.80;;;;;;6069060;23;92577;-66
2022/01/17 08:06:40;;;;;;;18.92;3.65;;;8.60;84.40;;;;;;6094006;23;95535;-66
2022/01/17 08:09:11;;;;;;;14.25;3.13;;;8.70;84.10;;;;;;6068463;23;109317;-70
2022/01/17 08:12:00;;;;;;;25.48;4.60;;;8.70;84.10;;;;;;6069598;23;92378;-71
2022/01/17 08:14:27;;;;;;;22.98;4.25;;;8.70;84.20;;;;;;6068758;23;101031;-70
2022/01/17 08:16:54;;;;;;;20.85;3.88;;;8.80;84.50;;;;;;6095461;23;92302;-70
2022/01/17 08:19:25;;;;;;;24.95;5.35;;;8.80;84.00;;;;;;6095141;23;92630;-70
2022/01/17 08:21:58;;;;;;;15.75;3.53;;;8.80;83.70;;;;;;6095813;23;92392;-70
2022/01/17 08:24:25;;;;;;;21.90;4.65;;;8.80;83.70;;;;;;6095672;23;91746;-70
2022/01/17 08:26:52;;;;;;;18.85;3.83;;;8.80;83.40;;;;;;6095409;23;94421;-70
2022/01/17 08:29:19;;;;;;;21.80;4.03;;;8.90;83.70;;;;;;6094732;23;92770;-66
2022/01/17 08:31:47;;;;;;;23.27;4.13;;;8.90;84.30;;;;;;6094156;23;94791;-67
2022/01/17 08:34:15;;;;;;;22.15;3.97;;;8.90;83.70;;;;;;6095105;23;92365;-66
2022/01/17 08:36:42;;;;;;;19.05;4.28;;;8.90;83.30;;;;;;6068324;23;94395;-66
2022/01/17 08:39:10;;;;;;;18.88;3.47;;;9.00;83.10;;;;;;6068297;23;93943;-66
2022/01/17 08:41:42;;;;;;;30.27;5.63;;;9.00;83.20;;;;;;6095419;23;92368;-66
2022/01/17 08:44:13;;;;;;;19.42;3.80;;;9.00;83.10;;;;;;6095342;23;92330;-66
2022/01/17 08:46:41;;;;;;;16.98;3.80;;;9.10;82.90;;;;;;6095560;23;92984;-66
2022/01/17 08:49:08;;;;;;;18.00;3.35;;;9.10;83.30;;;;;;6095647;23;92788;-66
2022/01/17 08:51:36;;;;;;;21.55;4.20;;;9.10;82.80;;;;;;6069466;23;92387;-66
2022/01/17 08:54:04;;;;;;;16.13;3.40;;;9.10;82.60;;;;;;6095778;23;92669;-67
2022/01/17 08:56:32;;;;;;;23.83;3.63;;;9.10;82.60;;;;;;6093557;23;95451;-66
2022/01/17 08:59:00;;;;;;;27.30;4.63;;;9.20;82.50;;;;;;6095100;23;94016;-67
2022/01/17 09:01:27;;;;;;;22.17;3.80;;;9.20;82.30;;;;;;6095421;23;92859;-67
2022/01/17 09:03:55;;;;;;;18.50;3.20;;;9.30;82.40;;;;;;6095241;23;92373;-66
2022/01/17 09:06:23;;;;;;;20.90;4.72;;;9.30;82.50;;;;;;6094898;23;92994;-66
2022/01/17 09:08:50;;;;;;;20.33;4.03;;;9.30;83.10;;;;;;6095327;23;92763;-66
2022/01/17 09:11:18;;;;;;;18.67;3.75;;;9.40;82.90;;;;;;6068838;23;92423;-66
2022/01/17 09:13:45;;;;;;;23.45;3.85;;;9.40;82.50;;;;;;6095795;23;91644;-67
2022/01/17 09:16:12;;;;;;;28.33;4.30;;;9.40;82.60;;;;;;6094510;23;94038;-66
2022/01/17 09:18:39;;;;;;;22.35;4.65;;;9.40;82.30;;;;;;6069223;23;92833;-66
2022/01/17 09:21:06;;;;;;;28.42;3.90;;;9.50;82.10;;;;;;6093868;23;95268;-67
2022/01/17 09:23:34;;;;;;;29.02;4.53;;;9.50;82.00;;;;;;6095011;23;92423;-66
2022/01/17 09:26:01;;;;;;;18.83;4.07;;;9.50;81.80;;;;;;6095165;23;93055;-67
2022/01/17 09:28:28;;;;;;;29.40;5.10;;;9.60;81.70;;;;;;6094891;23;92687;-66
2022/01/17 09:30:55;;;;;;;27.10;4.60;;;9.60;81.40;;;;;;6095282;23;92406;-66
2022/01/17 09:33:22;;;;;;;17.80;3.20;;;9.70;81.20;;;;;;6095343;23;92962;-66
2022/01/17 09:35:49;;;;;;;18.80;3.33;;;9.70;81.00;;;;;;6095001;23;92890;-66
2022/01/17 09:38:16;;;;;;;22.70;4.30;;;9.80;81.10;;;;;;6068421;23;92932;-66
2022/01/17 09:40:43;;;;;;;27.05;4.93;;;9.80;81.30;;;;;;6093411;23;92429;-67
2022/01/17 09:43:30;;;;;;;18.55;3.72;;;9.90;80.60;;;;;;6095001;23;93148;-65
2022/01/17 09:45:57;;;;;;;23.25;5.15;;;9.90;80.10;;;;;;6093209;23;96438;-69
2022/01/17 09:48:34;;;;;;;25.55;5.00;;;10.10;80.60;;;;;;6094527;23;95253;-69
2022/01/17 09:51:18;;;;;;;26.48;5.28;;;10.20;80.20;;;;;;6095335;23;92265;-69
2022/01/17 09:53:45;;;;;;;20.00;3.90;;;10.20;79.60;;;;;;6069174;23;92523;-70
2022/01/17 09:56:13;;;;;;;24.35;5.05;;;10.20;79.40;;;;;;6094642;23;93025;-69
2022/01/17 09:58:41;;;;;;;24.48;4.60;;;10.30;79.10;;;;;;6067817;23;104602;-69
2022/01/17 10:01:09;;;;;;;22.85;4.75;;;10.30;79.20;;;;;;6095592;23;92442;-69
2022/01/17 10:03:38;;;;;;;25.13;4.72;;;10.30;79.20;;;;;;6095441;23;92182;-65
2022/01/17 10:06:06;;;;;;;17.63;4.07;;;10.30;79.10;;;;;;6094907;23;93216;-65
2022/01/17 10:08:33;;;;;;;24.45;5.03;;;10.30;79.30;;;;;;6094727;23;92871;-65
2022/01/17 10:11:01;;;;;;;20.80;4.53;;;10.30;79.40;;;;;;6093745;23;94847;-68
2022/01/17 10:13:32;;;;;;;25.02;4.57;;;10.30;79.10;;;;;;6094470;23;92438;-65
2022/01/17 10:16:09;;;;;;;23.42;4.88;;;10.40;79.30;;;;;;6093266;23;92931;-66
2022/01/17 10:18:40;;;;;;;16.65;5.05;;;10.40;79.80;;;;;;6094580;23;92750;-66
2022/01/17 10:21:14;;;;;;;15.68;3.72;;;10.40;79.20;;;;;;6068959;23;92876;-65
2022/01/17 10:27:23;;;;;;;24.48;4.93;;;10.50;78.90;;;;;;6094565;23;93013;-65
2022/01/17 10:37:23;;;;;;;33.38;6.55;;;10.60;79.10;;;;;;6066848;23;97906;-66
2022/01/17 10:40:08;;;;;;;27.70;4.32;;;10.70;79.20;;;;;;6094663;23;95169;-65
2022/01/17 10:42:41;;;;;;;30.15;6.07;;;10.70;78.90;;;;;;6094613;23;92379;-66
2022/01/17 10:45:14;;;;;;;25.67;4.05;;;10.70;78.80;;;;;;6068642;23;92447;-66
2022/01/17 10:47:46;;;;;;;25.05;4.85;;;10.80;78.40;;;;;;6094334;23;92963;-70
2022/01/17 10:50:23;;;;;;;22.63;4.72;;;10.80;78.90;;;;;;6094618;23;92932;-69
2022/01/17 10:52:53;;;;;;;26.85;4.18;;;10.80;78.80;;;;;;6069519;23;92544;-70
2022/01/17 10:55:20;;;;;;;26.27;5.40;;;10.80;78.40;;;;;;6096420;23;93431;-70
2022/01/17 10:57:57;;;;;;;24.83;4.88;;;10.90;78.10;;;;;;6095490;23;93085;-70
2022/01/17 11:00:30;;;;;;;27.55;5.00;;;10.90;78.40;;;;;;6096207;23;93809;-70
2022/01/17 11:03:00;;;;;;;26.03;5.17;;;10.80;78.70;;;;;;6094882;23;95172;-69
2022/01/17 11:05:28;;;;;;;32.30;5.97;;;10.80;79.20;;;;;;6095912;23;92319;-71
2022/01/17 11:07:58;;;;;;;25.23;4.30;;;10.80;79.00;;;;;;6095976;23;93179;-71
2022/01/17 11:10:27;;;;;;;24.38;4.25;;;10.80;79.10;;;;;;6094000;23;95412;-71
2022/01/17 11:12:56;;;;;;;25.63;5.32;;;10.80;79.40;;;;;;6069858;23;92437;-70
2022/01/17 11:15:24;;;;;;;24.00;5.10;;;10.80;79.20;;;;;;6095782;23;92547;-70
2022/01/17 11:17:56;;;;;;;31.05;5.72;;;10.90;79.40;;;;;;6069502;23;94656;-70
2022/01/17 11:20:27;;;;;;;25.98;4.70;;;10.90;79.20;;;;;;6094479;23;95439;-70
2022/01/17 11:22:58;;;;;;;28.35;4.90;;;10.90;79.40;;;;;;6095901;23;92356;-71
2022/01/17 11:25:32;;;;;;;37.28;7.03;;;10.80;79.50;;;;;;6095984;23;92469;-71
2022/01/17 11:28:01;;;;;;;16.30;3.60;;;10.80;79.50;;;;;;6094126;23;95502;-70
2022/01/17 11:30:29;;;;;;;24.15;4.65;;;10.70;79.70;;;;;;6095633;23;95203;-71
2022/01/17 11:32:59;;;;;;;25.35;4.43;;;10.60;79.90;;;;;;6095858;23;92314;-70
2022/01/17 11:35:26;;;;;;;30.50;5.28;;;10.70;79.80;;;;;;6095779;23;92633;-71
2022/01/17 11:37:59;;;;;;;20.20;4.30;;;10.60;80.10;;;;;;6068059;23;107721;-70
2022/01/17 11:40:35;;;;;;;28.83;5.50;;;10.70;79.70;;;;;;6095540;23;92820;-71
2022/01/17 11:43:23;;;;;;;29.65;5.43;;;10.70;79.60;;;;;;6096081;23;93001;-70
2022/01/17 11:45:52;;;;;;;35.20;4.88;;;10.70;79.90;;;;;;6095710;23;91621;-70
2022/01/17 11:48:25;;;;;;;23.65;5.20;;;10.70;79.00;;;;;;6095484;23;93071;-70
2022/01/17 11:50:55;;;;;;;30.87;5.13;;;10.60;78.80;;;;;;6095205;23;92789;-70
2022/01/17 11:53:26;;;;;;;27.85;5.93;;;10.60;79.80;;;;;;6092279;23;94912;-71
2022/01/17 11:55:53;;;;;;;22.70;4.53;;;10.70;79.20;;;;;;6095295;23;92457;-70
2022/01/17 11:58:41;;;;;;;25.13;5.93;;;10.70;78.90;;;;;;6094869;23;105381;-71
2022/01/17 12:01:10;;;;;;;24.92;4.25;;;10.80;78.10;;;;;;6095656;23;92845;-70
2022/01/17 12:03:45;;;;;;;21.08;4.22;;;10.80;78.40;;;;;;6068992;23;92401;-71
2022/01/17 12:06:31;;;;;;;32.08;6.82;;;10.80;77.90;;;;;;6095608;23;92499;-70
2022/01/17 12:09:18;;;;;;;29.20;6.65;;;11.00;77.70;;;;;;6095308;23;93087;-66
2022/01/17 12:11:46;;;;;;;30.88;6.68;;;11.00;78.10;;;;;;6095598;23;93403;-66
2022/01/17 12:14:20;;;;;;;36.03;6.05;;;11.00;78.30;;;;;;6095673;23;92434;-66
2022/01/17 12:16:48;;;;;;;26.77;5.75;;;11.00;77.90;;;;;;6095345;23;92783;-66
2022/01/17 12:19:15;;;;;;;25.58;4.75;;;10.90;78.00;;;;;;6093875;23;95422;-66
2022/01/17 12:22:05;;;;;;;32.03;7.35;;;11.00;77.90;;;;;;6094838;23;95152;-67
2022/01/17 12:24:38;;;;;;;20.95;5.38;;;10.90;77.70;;;;;;6095585;23;92385;-66
2022/01/17 12:27:15;;;;;;;35.03;5.90;;;10.90;77.60;;;;;;6069226;23;92463;-66
2022/01/17 12:29:47;;;;;;;31.10;5.10;;;10.90;78.20;;;;;;6094809;23;99432;-66
2022/01/17 12:32:40;;;;;;;28.33;5.13;;;10.90;78.00;;;;;;6093347;23;94425;-66
2022/01/17 12:35:08;;;;;;;28.38;5.13;;;10.90;77.60;;;;;;6095602;23;92410;-67
2022/01/17 12:37:49;;;;;;;26.70;5.60;;;10.90;77.80;;;;;;6095372;23;91736;-66
2022/01/17 12:40:33;;;;;;;14.88;4.45;;;11.00;77.50;;;;;;6094996;23;96134;-67
2022/01/17 12:43:12;;;;;;;21.98;5.35;;;11.10;77.10;;;;;;6069133;23;92968;-66
2022/01/17 12:45:55;;;;;;;22.55;4.45;;;11.10;76.60;;;;;;6092830;23;94865;-66
2022/01/17 12:48:24;;;;;;;23.60;5.10;;;11.10;76.60;;;;;;6095368;23;92304;-66
2022/01/17 12:50:53;;;;;;;15.95;4.25;;;11.00;77.40;;;;;;6094954;23;93003;-66
2022/01/17 12:53:22;;;;;;;24.65;5.28;;;11.00;77.00;;;;;;6094960;23;92854;-66
2022/01/17 12:56:06;;;;;;;24.13;4.82;;;11.00;77.00;;;;;;6068194;23;92790;-65
2022/01/17 12:58:35;;;;;;;23.70;4.25;;;11.10;76.10;;;;;;6095241;23;92474;-66
2022/01/17 13:01:05;;;;;;;35.60;5.82;;;11.00;76.60;;;;;;6068925;23;92874;-66
2022/01/17 13:03:35;;;;;;;20.00;4.35;;;10.90;76.90;;;;;;6095486;23;92744;-66
2022/01/17 13:06:09;;;;;;;21.70;4.88;;;10.90;77.20;;;;;;6094904;23;92326;-66
2022/01/17 13:08:40;;;;;;;17.40;4.63;;;10.70;76.90;;;;;;6095277;23;92475;-66
2022/01/17 13:11:15;;;;;;;20.35;4.57;;;10.70;76.80;;;;;;6093207;23;95477;-66
2022/01/17 13:13:56;;;;;;;21.35;4.30;;;10.60;76.60;;;;;;6094423;23;95262;-66
2022/01/17 13:16:23;;;;;;;20.92;4.55;;;10.50;76.60;;;;;;6095009;23;92412;-66
2022/01/17 13:18:53;;;;;;;22.95;4.53;;;10.40;77.70;;;;;;6093912;23;107035;-66
2022/01/17 13:21:21;;;;;;;19.85;4.30;;;10.40;77.90;;;;;;6094933;23;92890;-66
2022/01/17 13:23:55;;;;;;;22.70;5.50;;;10.40;78.30;;;;;;6068515;23;93250;-66
2022/01/17 13:26:28;;;;;;;27.95;4.70;;;10.40;78.90;;;;;;6095147;23;92369;-66
2022/01/17 13:28:57;;;;;;;24.35;4.55;;;10.40;78.70;;;;;;6095503;23;91984;-66
2022/01/17 13:31:32;;;;;;;18.42;4.38;;;10.50;78.80;;;;;;6092870;23;94151;-66
2022/01/17 13:34:24;;;;;;;22.13;4.35;;;10.50;78.90;;;;;;6094616;23;92948;-66
2022/01/17 13:36:55;;;;;;;27.13;5.78;;;10.60;78.30;;;;;;6093676;23;94908;-66